Time;durP1;ratioP1;P1;durP2;ratioP2;P2;SDS_P1;SDS_P2;PMS_P1;PMS_P2;Temp;Humidity;BMP_temperature;BMP_pressure;BME280_temperature;BME280_humidity;BME280_pressure;Samples;Min_cycle;Max_cycle;Signal;HPM_P1;HPM_P2
2021/12/13 00:02:39;;;;;;;95.20;37.45;;;;;;;8.34;100.00;102513.19;5071574;28;20495;-87
2021/12/13 00:05:14;;;;;;;88.20;38.03;;;;;;;8.37;100.00;102502.81;5071685;28;20021;-87
2021/12/13 00:07:43;;;;;;;96.47;38.20;;;;;;;8.37;100.00;102502.81;5072269;28;20033;-87
2021/12/13 00:10:20;;;;;;;95.75;38.28;;;;;;;8.37;100.00;102510.63;5072244;28;20052;-87
2021/12/13 00:13:01;;;;;;;89.82;37.78;;;;;;;8.25;100.00;102500.06;5071636;28;20029;-86
2021/12/13 00:15:32;;;;;;;87.53;37.65;;;;;;;8.24;100.00;102487.03;5071013;28;20488;-87
2021/12/13 00:17:59;;;;;;;83.32;36.03;;;;;;;8.31;100.00;102494.09;5071769;28;20032;-86
2021/12/13 00:20:38;;;;;;;90.15;36.75;;;;;;;8.28;100.00;102501.84;5072724;28;20369;-87
2021/12/13 00:23:16;;;;;;;93.40;37.67;;;;;;;8.31;100.00;102501.88;5072472;28;20039;-87
2021/12/13 00:25:47;;;;;;;90.15;35.85;;;;;;;8.27;100.00;102500.06;5071859;28;20032;-87
2021/12/13 00:28:15;;;;;;;91.30;37.15;;;;;;;8.25;100.00;102500.06;5072441;28;20031;-87
2021/12/13 00:31:01;;;;;;;93.65;36.90;;;;;;;8.29;100.00;102511.38;5051388;28;20078;-87
2021/12/13 00:34:11;;;;;;;87.40;35.45;;;;;;;8.28;100.00;102507.03;5063386;28;20085;-87
2021/12/13 00:36:47;;;;;;;75.95;33.03;;;;;;;8.20;100.00;102502.59;5072066;28;20110;-87
2021/12/13 00:39:37;;;;;;;91.70;35.95;;;;;;;8.26;100.00;102512.19;5071461;28;20052;-87
2021/12/13 00:42:05;;;;;;;86.95;35.42;;;;;;;8.21;100.00;102509.56;5065627;28;20072;-87
2021/12/13 00:44:35;;;;;;;82.55;33.20;;;;;;;8.24;100.00;102519.13;5070430;28;20032;-87
2021/12/13 00:47:07;;;;;;;86.88;34.53;;;;;;;8.24;100.00;102518.22;5072224;28;20035;-87
2021/12/13 00:49:33;;;;;;;86.20;32.80;;;;;;;8.22;100.00;102520.81;5071919;28;20035;-87
2021/12/13 00:51:59;;;;;;;85.20;35.22;;;;;;;8.20;100.00;102523.38;5071360;28;20052;-87
2021/12/13 00:54:32;;;;;;;81.70;34.47;;;;;;;8.22;100.00;102515.63;5071998;28;20024;-87
2021/12/13 00:57:00;;;;;;;97.45;34.83;;;;;;;8.21;100.00;102524.28;5071956;28;20024;-87
2021/12/13 00:59:47;;;;;;;88.53;34.65;;;;;;;8.21;100.00;102524.28;5069690;28;20074;-87
2021/12/13 01:02:27;;;;;;;88.40;35.10;;;;;;;8.21;100.00;102521.69;5072291;28;20024;-88
2021/12/13 01:04:52;;;;;;;94.35;34.83;;;;;;;8.20;100.00;102522.50;5071230;28;20060;-87
2021/12/13 01:07:33;;;;;;;91.53;34.40;;;;;;;8.20;100.00;102533.75;5071139;28;20105;-87
2021/12/13 01:10:17;;;;;;;94.00;35.30;;;;;;;8.18;100.00;102530.28;5073085;28;20291;-86
2021/12/13 01:12:42;;;;;;;;;;;;;;;8.18;100.00;102535.50;5073128;28;20111;-87
2021/12/13 01:15:15;;;;;;;92.53;33.55;;;;;;;8.14;100.00;102532.81;5069350;28;20004;-87
2021/12/13 01:17:58;;;;;;;92.32;35.08;;;;;;;8.12;100.00;102535.41;5073905;28;20499;-87
2021/12/13 01:20:33;;;;;;;93.10;34.17;;;;;;;8.09;100.00;102535.34;5075359;28;20038;-87
2021/12/13 01:23:07;;;;;;;89.45;34.75;;;;;;;8.04;100.00;102521.41;5075866;28;20099;-87
2021/12/13 01:28:11;;;;;;;86.35;34.35;;;;;;;8.06;100.00;102535.31;5073912;28;20036;-87
2021/12/13 01:30:47;;;;;;;93.82;34.70;;;;;;;8.08;100.00;102541.41;5075023;28;20037;-86
2021/12/13 01:33:14;;;;;;;86.75;33.28;;;;;;;8.06;100.00;102540.50;5075882;28;20016;-87
2021/12/13 01:35:44;;;;;;;104.78;34.30;;;;;;;8.05;100.00;102545.69;5073358;28;20479;-87
2021/12/13 01:38:31;;;;;;;96.47;35.72;;;;;;;8.05;100.00;102548.28;5075753;28;20020;-86
2021/12/13 01:40:59;;;;;;;101.68;35.40;;;;;;;8.02;100.00;102548.25;5074529;28;20113;-86
2021/12/13 01:43:31;;;;;;;99.90;35.17;;;;;;;8.04;100.00;102552.59;5074993;28;20117;-86
2021/12/13 01:45:59;;;;;;;96.88;36.50;;;;;;;8.05;100.00;102548.28;5075040;28;20399;-86
2021/12/13 01:48:35;;;;;;;106.75;36.05;;;;;;;8.01;100.00;102552.56;5074794;28;20044;-86
2021/12/13 01:51:08;;;;;;;97.00;34.40;;;;;;;8.02;100.00;102559.50;5074744;28;20037;-87
2021/12/13 01:53:56;;;;;;;102.00;37.05;;;;;;;7.99;100.00;102551.66;5075049;28;20025;-87
2021/12/13 01:59:28;;;;;;;101.40;37.20;;;;;;;8.00;100.00;102557.72;5055166;28;20029;-87
2021/12/13 02:01:59;;;;;;;96.57;36.13;;;;;;;7.96;100.00;102551.63;5072578;28;20043;-86
2021/12/13 02:04:25;;;;;;;98.50;36.17;;;;;;;7.92;100.00;102553.31;5075045;28;20029;-87
2021/12/13 02:06:58;;;;;;;102.13;37.58;;;;;;;7.93;100.00;102556.78;5074108;28;20124;-86
2021/12/13 02:09:40;;;;;;;112.63;38.30;;;;;;;7.94;100.00;102561.09;5074426;28;20032;-86
2021/12/13 02:12:13;;;;;;;100.90;37.22;;;;;;;7.91;100.00;102564.56;5072873;28;20464;-86
2021/12/13 02:14:47;;;;;;;96.32;36.42;;;;;;;7.96;100.00;102564.59;5073464;28;20036;-87
2021/12/13 02:17:20;;;;;;;110.43;38.28;;;;;;;7.95;100.00;102568.06;5074505;28;20028;-86
2021/12/13 02:20:00;;;;;;;110.13;37.30;;;;;;;7.91;100.00;102553.25;5073967;28;20025;-87
2021/12/13 02:22:43;;;;;;;108.05;36.85;;;;;;;7.92;100.00;102552.44;5073558;28;20025;-87
2021/12/13 02:25:30;;;;;;;106.95;38.17;;;;;;;7.94;100.00;102543.78;5073984;28;20529;-86
2021/12/13 02:28:12;;;;;;;103.57;37.90;;;;;;;7.92;100.00;102548.13;5065573;28;20031;-86
2021/12/13 02:31:00;;;;;;;102.85;37.50;;;;;;;7.91;100.00;102540.28;5073088;28;20025;-87
2021/12/13 02:33:36;;;;;;;103.47;37.78;;;;;;;7.88;100.00;102540.22;5074545;28;20475;-86
2021/12/13 02:36:06;;;;;;;107.68;38.35;;;;;;;7.90;100.00;102551.53;5074124;28;20465;-86
2021/12/13 02:38:32;;;;;;;112.15;37.28;;;;;;;7.88;100.00;102553.22;5073627;28;20070;-87
2021/12/13 02:40:59;;;;;;;99.10;36.13;;;;;;;7.90;100.00;102560.19;5065059;28;20595;-86
2021/12/13 02:43:29;;;;;;;107.10;36.75;;;;;;;7.87;100.00;102554.06;5054060;28;20398;-86
2021/12/13 02:45:57;;;;;;;105.82;36.33;;;;;;;7.85;100.00;102555.81;5065512;28;20044;-87
2021/12/13 02:48:37;;;;;;;113.57;36.90;;;;;;;7.86;100.00;102562.72;5074389;28;20103;-87
2021/12/13 02:51:08;;;;;;;101.85;36.45;;;;;;;7.88;100.00;102568.78;5072797;28;20043;-87
2021/12/13 02:53:48;;;;;;;96.65;36.83;;;;;;;7.85;100.00;102558.41;5073794;28;20025;-87
2021/12/13 02:56:16;;;;;;;102.45;35.30;;;;;;;7.84;100.00;102559.22;5073811;28;20029;-87
2021/12/13 02:58:42;;;;;;;93.93;35.75;;;;;;;7.84;100.00;102564.41;5072947;28;20020;-86
2021/12/13 03:01:26;;;;;;;92.97;35.30;;;;;;;7.77;100.00;102555.66;5074095;28;20487;-86
2021/12/13 03:03:55;;;;;;;;;;;;;;;7.85;100.00;102558.41;5073439;28;20167;-86
2021/12/13 03:06:27;;;;;;;96.90;34.90;;;;;;;7.79;100.00;102548.78;5072964;28;19981;-86
2021/12/13 03:09:00;;;;;;;96.93;36.03;;;;;;;7.83;100.00;102560.09;5073254;28;20090;-86
2021/12/13 03:11:31;;;;;;;97.15;35.20;;;;;;;7.82;100.00;102556.63;5073142;28;20055;-86
2021/12/13 03:14:11;;;;;;;98.72;34.70;;;;;;;7.78;100.00;102553.94;5072649;28;20501;-86
2021/12/13 03:17:11;;;;;;;103.78;35.95;;;;;;;7.78;100.00;102559.13;5073729;28;20036;-86
2021/12/13 03:19:42;;;;;;;102.25;35.55;;;;;;;7.81;100.00;102564.38;5027628;28;20044;-86
2021/12/13 03:22:56;;;;;;;99.10;34.25;;;;;;;7.79;100.00;102555.69;5073689;28;20029;-86
2021/12/13 03:25:33;;;;;;;97.90;34.25;;;;;;;7.76;100.00;102556.53;5071960;28;20024;-87
2021/12/13 03:28:34;;;;;;;109.35;35.05;;;;;;;7.76;100.00;102556.53;5072750;28;20048;-86
2021/12/13 03:31:10;;;;;;;98.25;35.00;;;;;;;7.76;100.00;102556.53;5073291;28;20035;-86
2021/12/13 03:33:54;;;;;;;97.65;34.75;;;;;;;7.73;100.00;102551.28;5071509;28;20025;-86
2021/12/13 03:36:32;;;;;;;95.43;34.53;;;;;;;7.70;100.00;102553.81;5073426;28;20029;-86
2021/12/13 03:38:58;;;;;;;104.32;35.33;;;;;;;7.69;100.00;102554.69;5071938;28;20119;-86
2021/12/13 03:41:25;;;;;;;101.50;35.30;;;;;;;7.69;100.00;102555.56;5072283;28;20104;-86
2021/12/13 03:44:05;;;;;;;101.05;33.92;;;;;;;7.68;100.00;102556.41;5072414;28;20036;-87
2021/12/13 03:46:33;;;;;;;103.85;35.50;;;;;;;7.69;100.00;102565.94;5072737;28;20278;-86
2021/12/13 03:49:00;;;;;;;107.60;35.13;;;;;;;7.64;100.00;102545.94;5071716;28;20020;-86
2021/12/13 03:51:30;;;;;;;111.20;34.28;;;;;;;7.67;100.00;102556.38;5072958;28;20031;-86
2021/12/13 03:53:57;;;;;;;96.38;35.70;;;;;;;7.66;100.00;102557.22;5069984;28;20048;-87
2021/12/13 03:56:32;;;;;;;102.40;34.75;;;;;;;7.67;100.00;102567.63;5061692;28;20024;-86
2021/12/13 03:59:13;;;;;;;105.28;35.88;;;;;;;7.70;100.00;102574.59;5072861;28;20062;-86
2021/12/13 04:01:44;;;;;;;105.15;34.60;;;;;;;7.69;100.00;102565.06;5071732;28;20025;-87
2021/12/13 04:04:19;;;;;;;101.90;33.92;;;;;;;7.66;100.00;102558.09;5072647;28;20032;-86
2021/12/13 04:06:51;;;;;;;99.22;33.17;;;;;;;7.68;100.00;102571.09;5071525;28;20032;-87
2021/12/13 04:09:18;;;;;;;102.82;33.58;;;;;;;7.63;100.00;102565.84;5064527;28;20024;-86
2021/12/13 04:11:45;;;;;;;96.47;33.42;;;;;;;7.62;100.00;102561.50;5070121;28;20032;-87
2021/12/13 04:14:20;;;;;;;99.97;32.22;;;;;;;7.64;100.00;102557.19;5072924;28;20031;-87
2021/12/13 04:17:09;;;;;;;90.20;34.05;;;;;;;7.56;100.00;102548.41;5071449;28;20380;-87
2021/12/13 04:19:48;;;;;;;96.22;34.83;;;;;;;7.66;100.00;102562.41;5072233;28;20020;-86
2021/12/13 04:22:17;;;;;;;93.57;31.70;;;;;;;7.66;100.00;102563.28;5072432;28;20029;-86
2021/12/13 04:24:54;;;;;;;96.45;32.63;;;;;;;7.59;100.00;102564.03;5058128;28;20036;-86
2021/12/13 04:27:23;;;;;;;91.80;33.20;;;;;;;7.63;100.00;102575.34;5052444;28;20468;-86
2021/12/13 04:29:52;;;;;;;94.68;32.33;;;;;;;7.61;100.00;102577.03;5068788;28;20669;-86
2021/12/13 04:32:34;;;;;;;92.38;31.60;;;;;;;7.61;100.00;102577.03;5072066;28;20032;-86
2021/12/13 04:35:07;;;;;;;84.00;31.98;;;;;;;7.58;100.00;102577.84;5052170;28;20386;-87
2021/12/13 04:37:37;;;;;;;88.35;31.90;;;;;;;7.61;100.00;102577.03;5051554;28;20094;-87
2021/12/13 04:40:09;;;;;;;91.28;32.25;;;;;;;7.57;100.00;102573.50;5070765;28;20086;-88
2021/12/13 04:42:35;;;;;;;83.13;31.38;;;;;;;7.61;100.00;102577.03;5070858;28;20055;-87
2021/12/13 04:45:09;;;;;;;89.75;32.13;;;;;;;7.60;100.00;102570.09;5070704;28;20376;-86
2021/12/13 04:47:45;;;;;;;84.85;30.90;;;;;;;7.56;100.00;102579.56;5071489;28;20067;-86
2021/12/13 04:50:10;;;;;;;85.68;30.77;;;;;;;7.58;100.00;102577.84;5072358;28;20039;-87
2021/12/13 04:52:36;;;;;;;78.97;29.75;;;;;;;7.57;100.00;102575.25;5071084;28;20119;-86
2021/12/13 04:55:08;;;;;;;84.40;30.48;;;;;;;7.59;100.00;102576.16;5070959;28;20040;-86
2021/12/13 04:57:34;;;;;;;75.55;29.90;;;;;;;7.55;100.00;102577.78;5070921;28;20108;-87
2021/12/13 05:00:07;;;;;;;74.68;29.33;;;;;;;7.56;100.00;102563.13;5071709;28;20031;-87
2021/12/13 05:02:33;;;;;;;85.57;29.83;;;;;;;7.55;100.00;102557.03;5071247;28;20037;-87
2021/12/13 05:05:02;;;;;;;81.93;29.05;;;;;;;7.46;100.00;102550.00;5070921;28;20480;-86
2021/12/13 05:07:31;;;;;;;77.90;28.08;;;;;;;7.54;100.00;102565.69;5072236;28;20033;-86
2021/12/13 05:09:58;;;;;;;75.10;28.65;;;;;;;7.49;100.00;102564.75;5061038;28;20124;-87
2021/12/13 05:12:28;;;;;;;74.97;28.90;;;;;;;7.49;100.00;102563.00;5063471;28;20035;-87
2021/12/13 05:14:58;;;;;;;75.13;28.40;;;;;;;7.53;100.00;102579.50;5071864;28;20028;-86
2021/12/13 05:17:25;;;;;;;67.20;26.60;;;;;;;7.53;100.00;102582.09;5070865;28;20381;-87
2021/12/13 05:19:59;;;;;;;73.25;27.92;;;;;;;7.49;100.00;102581.19;5069772;28;20028;-87
2021/12/13 05:22:25;;;;;;;;;;;;;;;7.52;100.00;102588.16;5071926;28;20080;-87
2021/12/13 05:24:57;;;;;;;66.82;25.38;;;;;;;7.47;100.00;102579.41;5062368;28;19921;-87
2021/12/13 05:27:25;;;;;;;62.50;26.75;;;;;;;7.46;100.00;102570.75;5051355;28;20550;-87
2021/12/13 05:29:52;;;;;;;71.50;28.15;;;;;;;7.52;100.00;102582.97;5070927;28;20047;-86
2021/12/13 05:32:24;;;;;;;67.82;25.02;;;;;;;7.51;100.00;102581.19;5071354;28;20104;-87
2021/12/13 05:34:58;;;;;;;65.22;26.25;;;;;;;7.49;100.00;102582.91;5069770;28;20123;-87
2021/12/13 05:37:24;;;;;;;61.90;24.85;;;;;;;7.47;100.00;102579.41;5071296;28;20464;-86
2021/12/13 05:40:22;;;;;;;68.13;25.05;;;;;;;7.50;100.00;102589.84;5059370;28;20115;-87
2021/12/13 05:42:52;;;;;;;63.10;25.27;;;;;;;7.47;100.00;102574.22;5027904;28;20056;-87
2021/12/13 05:45:37;;;;;;;58.30;24.80;;;;;;;7.48;100.00;102584.59;5058665;28;20107;-87
2021/12/13 05:48:23;;;;;;;61.90;24.85;;;;;;;7.45;100.00;102581.09;5071022;28;20082;-87
2021/12/13 05:50:51;;;;;;;60.88;24.35;;;;;;;7.42;100.00;102581.03;5071213;28;20481;-86
2021/12/13 05:53:38;;;;;;;58.17;24.42;;;;;;;7.43;100.00;102583.66;5071658;28;20370;-87
2021/12/13 05:56:03;;;;;;;55.75;23.58;;;;;;;7.44;100.00;102576.75;5072639;28;20032;-86
2021/12/13 05:58:50;;;;;;;63.53;23.83;;;;;;;7.45;100.00;102581.09;5074463;28;20085;-87
2021/12/13 06:01:29;;;;;;;60.03;23.95;;;;;;;7.44;100.00;102582.81;5074424;28;20817;-87
2021/12/13 06:04:07;;;;;;;58.47;23.48;;;;;;;7.44;100.00;102592.31;5075154;28;20028;-87
2021/12/13 06:06:41;;;;;;;57.42;23.55;;;;;;;7.42;100.00;102586.22;5074902;28;20078;-87
2021/12/13 06:09:07;;;;;;;49.45;22.48;;;;;;;7.40;100.00;102585.34;5073029;28;20384;-87
2021/12/13 06:11:33;;;;;;;52.85;23.08;;;;;;;7.40;100.00;102582.75;5074775;28;20038;-87
2021/12/13 06:14:04;;;;;;;54.33;22.75;;;;;;;7.41;100.00;102590.53;5074466;28;20112;-86
2021/12/13 06:16:37;;;;;;;51.28;21.83;;;;;;;7.41;100.00;102587.06;5074155;28;20028;-86
2021/12/13 06:19:11;;;;;;;;;;;;;;;7.42;100.00;102596.59;5074809;28;20074;-87
2021/12/13 06:22:06;;;;;;;44.72;20.45;;;;;;;7.44;100.00;102584.53;5074604;28;19989;-86
2021/12/13 06:24:42;;;;;;;57.40;21.38;;;;;;;7.39;100.00;102601.72;5060142;28;20052;-86
2021/12/13 06:27:14;;;;;;;49.33;21.42;;;;;;;7.37;100.00;102598.25;5054885;28;20025;-86
2021/12/13 06:30:05;;;;;;;46.90;19.95;;;;;;;7.36;100.00;102596.53;5064442;28;20024;-87
2021/12/13 06:32:53;;;;;;;48.85;21.73;;;;;;;7.34;100.00;102598.19;5074478;28;20047;-87
2021/12/13 06:35:48;;;;;;;47.97;20.20;;;;;;;7.39;100.00;102601.72;5074825;28;20027;-87
2021/12/13 06:38:19;;;;;;;;;;;;;;;7.40;100.00;102611.28;5071036;28;20036;-86
2021/12/13 06:40:52;;;;;;;47.20;19.98;;;;;;;7.36;100.00;102604.31;5061348;28;19916;-86
2021/12/13 06:43:49;;;;;;;47.65;20.05;;;;;;;7.35;100.00;102608.59;5060332;28;20480;-86
2021/12/13 06:46:31;;;;;;;44.92;19.40;;;;;;;7.37;100.00;102614.69;5063578;28;20036;-86
2021/12/13 06:49:09;;;;;;;47.97;20.08;;;;;;;7.30;100.00;102605.06;5073503;28;20116;-86
2021/12/13 06:51:49;;;;;;;47.55;20.00;;;;;;;7.36;100.00;102615.56;5053253;28;20100;-86
2021/12/13 06:54:38;;;;;;;46.05;20.33;;;;;;;7.33;100.00;102609.44;5054132;28;20028;-87
2021/12/13 06:57:09;;;;;;;39.88;18.80;;;;;;;7.34;100.00;102612.03;5054454;28;20025;-86
2021/12/13 06:59:46;;;;;;;41.40;19.48;;;;;;;7.32;100.00;102618.91;5063073;28;20032;-86
2021/12/13 07:02:15;;;;;;;47.40;19.63;;;;;;;7.32;100.00;102625.81;5073595;28;20050;-87
2021/12/13 07:04:49;;;;;;;44.40;19.42;;;;;;;7.35;100.00;102625.88;5073103;28;20055;-86
2021/12/13 07:07:15;;;;;;;;;;;;;;;7.35;100.00;102625.88;5072564;28;20025;-87
2021/12/13 07:09:50;;;;;;;38.90;19.40;;;;;;;7.28;100.00;102617.97;5072217;28;19917;-87
2021/12/13 07:12:17;;;;;;;40.72;19.73;;;;;;;7.30;100.00;102623.22;5073152;28;20017;-87
2021/12/13 07:14:44;;;;;;;49.03;19.80;;;;;;;7.30;100.00;102622.34;5073186;28;20025;-86
2021/12/13 07:17:34;;;;;;;40.92;20.40;;;;;;;7.27;100.00;102618.84;5061421;28;20500;-87
2021/12/13 07:20:12;;;;;;;47.28;19.45;;;;;;;7.25;100.00;102614.47;5071104;28;20111;-87
2021/12/13 07:22:37;;;;;;;43.72;19.52;;;;;;;7.31;100.00;102624.09;5073227;28;20040;-87
2021/12/13 07:25:08;;;;;;;43.45;19.20;;;;;;;7.32;100.00;102637.06;5073047;28;20020;-87
2021/12/13 07:27:40;;;;;;;46.45;19.38;;;;;;;7.30;100.00;102628.41;5072471;28;20028;-86
2021/12/13 07:30:22;;;;;;;44.45;19.63;;;;;;;7.34;100.00;102637.13;5069330;28;20039;-87
2021/12/13 07:33:06;;;;;;;41.95;18.60;;;;;;;7.34;100.00;102638.00;5068039;28;20033;-87
2021/12/13 07:35:36;;;;;;;45.63;19.30;;;;;;;7.31;100.00;102634.47;5072916;28;20033;-87
2021/12/13 07:38:05;;;;;;;44.15;18.77;;;;;;;7.34;100.00;102634.53;5072632;28;20036;-86
2021/12/13 07:40:41;;;;;;;45.88;19.33;;;;;;;7.33;100.00;102650.94;5055241;28;20029;-86
2021/12/13 07:43:06;;;;;;;45.90;19.55;;;;;;;7.33;100.00;102644.03;5053165;28;20048;-86
2021/12/13 07:45:41;;;;;;;41.77;19.43;;;;;;;7.34;100.00;102644.91;5069098;28;20035;-86
2021/12/13 07:48:14;;;;;;;43.88;19.38;;;;;;;7.32;100.00;102641.41;5069652;28;20393;-86
2021/12/13 07:50:42;;;;;;;39.88;18.88;;;;;;;7.34;100.00;102642.31;5072800;28;20053;-87
2021/12/13 07:53:16;;;;;;;42.65;20.02;;;;;;;7.34;100.00;102644.91;5073181;28;20418;-86
2021/12/13 07:55:47;;;;;;;47.58;19.45;;;;;;;7.37;100.00;102657.94;5071784;28;20095;-87
2021/12/13 07:58:30;;;;;;;37.53;18.75;;;;;;;7.33;100.00;102645.75;5053347;28;20056;-86
2021/12/13 08:01:06;;;;;;;42.53;18.95;;;;;;;7.39;100.00;102664.00;5051962;28;20028;-85
2021/12/13 08:03:31;;;;;;;36.83;18.13;;;;;;;7.36;100.00;102662.25;5053964;28;20029;-86
2021/12/13 08:06:06;;;;;;;39.85;19.45;;;;;;;7.39;100.00;102661.41;5053452;28;20491;-85
2021/12/13 08:08:34;;;;;;;40.50;18.13;;;;;;;7.41;100.00;102658.00;5054083;28;20029;-86
2021/12/13 08:11:01;;;;;;;41.72;18.58;;;;;;;7.42;100.00;102648.50;5060100;28;20017;-85
2021/12/13 08:13:30;;;;;;;45.35;19.98;;;;;;;7.43;100.00;102650.28;5052847;28;20024;-87
2021/12/13 08:16:00;;;;;;;39.88;19.58;;;;;;;7.46;100.00;102656.38;5059952;28;20108;-86
2021/12/13 08:18:30;;;;;;;45.42;19.98;;;;;;;7.47;100.00;102657.25;5052605;28;20034;-86
2021/12/13 08:21:00;;;;;;;45.70;20.42;;;;;;;7.47;100.00;102662.44;5052057;28;20143;-86
2021/12/13 08:23:33;;;;;;;39.10;19.35;;;;;;;7.46;100.00;102663.31;5054537;28;20052;-86
2021/12/13 08:26:00;;;;;;;35.22;19.77;;;;;;;7.47;100.00;102668.50;5071844;28;20029;-86
2021/12/13 08:28:38;;;;;;;41.90;21.73;;;;;;;7.43;100.00;102658.06;5052723;28;20029;-86
2021/12/13 08:31:08;;;;;;;41.33;20.38;;;;;;;7.43;100.00;102653.72;5065022;28;20036;-85
2021/12/13 08:33:44;;;;;;;39.53;20.35;;;;;;;7.46;100.00;102656.38;5070113;28;20024;-86
2021/12/13 08:36:29;;;;;;;36.75;19.35;;;;;;;7.46;100.00;102655.53;5065712;28;20028;-86
2021/12/13 08:39:07;;;;;;;41.08;20.60;;;;;;;7.49;100.00;102660.78;5071162;28;20050;-86
2021/12/13 08:41:49;;;;;;;45.88;20.92;;;;;;;7.49;100.00;102666.81;5053090;28;20048;-86
2021/12/13 08:44:25;;;;;;;44.13;20.42;;;;;;;7.46;100.00;102655.53;5051427;28;20025;-86
2021/12/13 08:46:55;;;;;;;37.83;20.40;;;;;;;7.49;100.00;102660.78;5063446;28;20016;-86
2021/12/13 08:49:26;;;;;;;38.95;19.85;;;;;;;7.45;100.00;102658.94;5072266;28;20048;-86
2021/12/13 08:52:10;;;;;;;37.38;19.80;;;;;;;7.50;100.00;102665.09;5069775;28;20025;-86
2021/12/13 08:55:00;;;;;;;37.75;18.90;;;;;;;7.46;100.00;102655.53;5071144;28;20039;-86
2021/12/13 08:57:30;;;;;;;34.10;19.00;;;;;;;7.40;100.00;102650.22;5070023;28;20027;-86
2021/12/13 08:59:57;;;;;;;35.63;18.67;;;;;;;7.49;100.00;102663.38;5051846;28;20040;-86
2021/12/13 09:02:28;;;;;;;37.60;18.08;;;;;;;7.50;100.00;102662.50;5056526;28;20020;-85
2021/12/13 09:05:16;;;;;;;36.50;18.35;;;;;;;7.49;100.00;102666.81;5063744;28;20025;-85
2021/12/13 09:07:54;;;;;;;38.13;18.63;;;;;;;7.45;100.00;102657.22;5056034;28;20163;-86
2021/12/13 09:10:33;;;;;;;34.55;18.33;;;;;;;7.43;100.00;102656.31;5062143;28;20025;-87
2021/12/13 09:12:59;;;;;;;30.60;18.02;;;;;;;7.49;100.00;102666.81;5054979;28;20107;-85
2021/12/13 09:15:30;;;;;;;31.85;17.58;;;;;;;7.53;100.00;102677.25;5072159;28;20546;-84
2021/12/13 09:17:56;;;;;;;29.42;17.48;;;;;;;7.46;100.00;102668.50;5070577;28;20380;-86
2021/12/13 09:20:29;;;;;;;31.25;17.23;;;;;;;7.54;100.00;102684.19;5070710;28;20025;-86
2021/12/13 09:23:17;;;;;;;30.08;17.73;;;;;;;7.54;100.00;102674.69;5069186;28;20028;-86
2021/12/13 09:25:52;;;;;;;31.75;17.50;;;;;;;7.57;100.00;102682.53;5070552;28;20021;-84
2021/12/13 09:28:29;;;;;;;31.90;18.42;;;;;;;7.55;100.00;102676.41;5072154;28;20025;-85
2021/12/13 09:30:56;;;;;;;31.95;16.55;;;;;;;7.59;100.00;102687.75;5072943;28;20020;-85
2021/12/13 09:33:30;;;;;;;26.48;15.57;;;;;;;7.59;100.00;102690.38;5075177;28;20055;-85
2021/12/13 09:35:55;;;;;;;28.23;16.10;;;;;;;7.58;100.00;102697.25;5075358;28;20380;-84
2021/12/13 09:38:38;;;;;;;31.33;16.67;;;;;;;7.58;100.00;102701.56;5074559;28;20029;-84
2021/12/13 09:41:16;;;;;;;26.98;16.42;;;;;;;7.58;100.00;102705.03;5073517;28;20381;-84
2021/12/13 09:43:41;;;;;;;28.17;16.00;;;;;;;7.58;100.00;102722.34;5074480;28;20124;-84
2021/12/13 09:46:07;;;;;;;29.52;16.10;;;;;;;7.54;100.00;102711.03;5074860;28;20175;-85
2021/12/13 09:48:45;;;;;;;24.88;15.07;;;;;;;7.59;100.00;102722.38;5075041;28;20033;-84
2021/12/13 09:51:19;;;;;;;26.48;14.98;;;;;;;7.60;100.00;102728.44;5072551;28;20017;-83
2021/12/13 09:53:49;;;;;;;28.52;14.93;;;;;;;7.56;100.00;102727.50;5074179;28;20025;-84
2021/12/13 09:56:16;;;;;;;24.70;14.65;;;;;;;7.60;100.00;102746.59;5075189;28;20618;-83
2021/12/13 09:58:54;;;;;;;23.52;13.70;;;;;;;7.61;100.00;102740.56;5073869;28;20027;-85
2021/12/13 10:01:25;;;;;;;23.77;15.07;;;;;;;7.61;100.00;102738.84;5070433;28;20033;-82
2021/12/13 10:04:08;;;;;;;23.45;13.65;;;;;;;7.55;100.00;102733.53;5074881;28;20071;-84
2021/12/13 10:06:48;;;;;;;21.83;13.93;;;;;;;7.62;100.00;102751.00;5074471;28;20539;-83
2021/12/13 10:09:21;;;;;;;21.70;13.77;;;;;;;7.64;100.00;102741.50;5074484;28;20769;-84
2021/12/13 10:11:53;;;;;;;19.92;12.50;;;;;;;7.62;100.00;102743.19;5069743;28;20221;-83
2021/12/13 10:14:24;;;;;;;20.08;12.55;;;;;;;7.64;100.00;102738.91;5074192;28;20468;-83
2021/12/13 10:16:53;;;;;;;19.58;12.07;;;;;;;7.64;100.00;102736.31;5073470;28;20031;-84
2021/12/13 10:19:40;;;;;;;19.60;12.18;;;;;;;7.61;100.00;102728.44;5069217;28;20074;-83
2021/12/13 10:22:08;;;;;;;19.80;11.07;;;;;;;7.62;100.00;102730.22;5061930;28;20025;-84
2021/12/13 10:24:39;;;;;;;17.55;10.85;;;;;;;7.59;100.00;102719.78;5070504;28;20024;-83
2021/12/13 10:27:07;;;;;;;19.67;11.10;;;;;;;7.65;100.00;102726.78;5070402;28;20032;-84
2021/12/13 10:29:34;;;;;;;17.77;11.65;;;;;;;7.66;100.00;102728.56;5068688;28;20021;-84
2021/12/13 10:32:08;;;;;;;17.45;10.90;;;;;;;7.69;100.00;102729.50;5073796;28;20036;-83
2021/12/13 10:34:37;;;;;;;16.88;10.73;;;;;;;7.69;100.00;102726.88;5074411;28;20028;-84
2021/12/13 10:37:11;;;;;;;14.75;9.88;;;;;;;7.70;100.00;102728.63;5053939;28;20104;-83
2021/12/13 10:39:42;;;;;;;19.80;9.77;;;;;;;7.70;100.00;102726.03;5066605;28;20039;-83
2021/12/13 10:42:14;;;;;;;15.77;10.40;;;;;;;7.70;100.00;102723.44;5067371;28;20045;-83
2021/12/13 10:44:44;;;;;;;16.95;10.60;;;;;;;7.66;100.00;102715.59;5058453;28;20067;-83
2021/12/13 10:47:19;;;;;;;16.88;10.27;;;;;;;7.68;100.00;102722.56;5069419;28;20101;-83
2021/12/13 10:49:48;;;;;;;15.60;9.75;;;;;;;7.68;100.00;102706.97;5067968;28;20049;-83
2021/12/13 10:52:18;;;;;;;14.00;9.68;;;;;;;7.70;100.00;102707.88;5067496;28;20027;-83
2021/12/13 10:54:47;;;;;;;11.90;9.40;;;;;;;7.73;100.00;102707.06;5072600;28;20028;-83
2021/12/13 10:57:21;;;;;;;14.55;9.15;;;;;;;7.73;100.00;102712.25;5058594;28;20021;-85
2021/12/13 10:59:49;;;;;;;12.95;9.52;;;;;;;7.76;100.00;102716.63;5072559;28;20021;-82
2021/12/13 11:02:19;;;;;;;16.38;9.60;;;;;;;7.79;100.00;102724.47;5073053;28;20035;-84
2021/12/13 11:04:51;;;;;;;12.82;8.82;;;;;;;7.80;100.00;102721.00;5064295;28;20025;-85
2021/12/13 11:07:17;;;;;;;16.53;9.63;;;;;;;7.81;100.00;102721.03;5064347;28;20064;-80
2021/12/13 11:09:45;;;;;;;13.88;9.40;;;;;;;7.82;100.00;102714.13;5068677;28;20669;-82
2021/12/13 11:12:16;;;;;;;15.57;9.32;;;;;;;7.77;100.00;102702.78;5062307;28;20032;-82
2021/12/13 11:14:47;;;;;;;14.35;8.82;;;;;;;7.78;100.00;102704.53;5073270;28;20439;-82
2021/12/13 11:17:16;;;;;;;13.65;8.70;;;;;;;7.81;100.00;102704.56;5057852;28;20037;-83
2021/12/13 11:19:47;;;;;;;14.23;9.10;;;;;;;7.71;100.00;102686.22;5062560;28;20020;-82
2021/12/13 11:22:18;;;;;;;15.18;9.40;;;;;;;7.81;100.00;102704.56;5073433;28;20342;-83
2021/12/13 11:24:47;;;;;;;11.70;8.73;;;;;;;7.80;100.00;102695.06;5072633;28;20025;-83
2021/12/13 11:27:21;;;;;;;13.30;8.93;;;;;;;7.82;100.00;102696.84;5064843;28;20024;-83
2021/12/13 11:29:48;;;;;;;13.40;8.73;;;;;;;7.81;100.00;102700.25;5060368;28;20032;-83
2021/12/13 11:32:34;;;;;;;14.00;8.80;;;;;;;7.94;100.00;102703.94;5072875;28;20385;-83
2021/12/13 11:35:14;;;;;;;11.10;8.43;;;;;;;7.90;100.00;102699.56;5066957;28;20024;-83
2021/12/13 11:37:45;;;;;;;13.48;8.85;;;;;;;7.89;100.00;102701.28;5068629;28;20029;-84
2021/12/13 11:40:38;;;;;;;13.50;8.63;;;;;;;7.89;100.00;102700.41;5062496;28;20028;-83
2021/12/13 11:43:32;;;;;;;11.95;8.35;;;;;;;7.86;100.00;102696.03;5072955;28;20080;-83
2021/12/13 11:46:06;;;;;;;13.95;8.32;;;;;;;7.89;100.00;102695.22;5072166;28;20807;-84
2021/12/13 11:49:07;;;;;;;14.15;8.60;;;;;;;7.90;100.00;102704.75;5070345;28;20749;-83
2021/12/13 11:52:09;;;;;;;13.30;8.35;;;;;;;7.90;100.00;102702.16;5063946;28;20430;-84